Time;durP1;ratioP1;P1;durP2;ratioP2;P2;SDS_P1;SDS_P2;PMS_P1;PMS_P2;Temp;Humidity;BMP_temperature;BMP_pressure;BME280_temperature;BME280_humidity;BME280_pressure;Samples;Min_cycle;Max_cycle;Signal;HPM_P1;HPM_P2
2024/01/13 00:02:50;;;;;;;21.20;14.70;;;;;;;-1.70;100.00;99076.77;137514;1273;22161;-79
2024/01/13 00:05:52;;;;;;;23.00;15.30;;;;;;;-1.70;100.00;99071.45;137534;1273;22059;-79
2024/01/13 00:08:55;;;;;;;22.90;14.50;;;;;;;-1.69;100.00;99068.08;137586;1273;22138;-79
2024/01/13 00:11:57;;;;;;;18.30;12.60;;;;;;;-1.69;100.00;99071.86;137575;1273;22083;-79
2024/01/13 00:15:00;;;;;;;18.00;11.40;;;;;;;-1.68;100.00;99064.08;137560;1273;22128;-80
2024/01/13 00:18:02;;;;;;;20.90;13.70;;;;;;;-1.67;100.00;99071.11;137630;1273;22568;-80
2024/01/13 00:21:07;;;;;;;22.70;14.30;;;;;;;-1.69;100.00;99075.40;137536;1273;22120;-79
2024/01/13 00:24:09;;;;;;;23.70;14.00;;;;;;;-1.72;100.00;99073.73;137553;1273;22270;-81
2024/01/13 00:27:12;;;;;;;26.60;15.50;;;;;;;-0.54;100.00;99074.99;137573;1273;22409;-79
2024/01/13 00:30:15;;;;;;;18.00;12.40;;;;;;;0.27;100.00;99073.48;137543;1273;22305;-79
2024/01/13 00:33:17;;;;;;;20.50;11.80;;;;;;;-0.48;100.00;99078.58;137517;1273;22647;-79
2024/01/13 00:36:19;;;;;;;17.60;12.30;;;;;;;-0.97;100.00;99083.83;137523;1273;22052;-80
2024/01/13 00:39:22;;;;;;;20.00;12.30;;;;;;;-1.24;100.00;99080.27;137701;1273;22112;-79
2024/01/13 00:42:24;;;;;;;20.90;12.90;;;;;;;-1.42;100.00;99075.10;137630;1273;22106;-79
2024/01/13 00:45:27;;;;;;;18.20;11.80;;;;;;;-1.52;100.00;99074.98;137676;1273;22302;-79
2024/01/13 00:48:29;;;;;;;18.90;12.20;;;;;;;-1.60;100.00;99065.45;137585;1273;22089;-80
2024/01/13 00:51:33;;;;;;;23.70;13.80;;;;;;;-1.66;100.00;99062.48;137537;1273;22082;-79
2024/01/13 00:54:36;;;;;;;16.90;11.00;;;;;;;-1.69;100.00;99063.51;137549;1273;22137;-79
2024/01/13 00:57:39;;;;;;;20.40;13.10;;;;;;;-1.70;100.00;99055.92;137470;1273;22083;-79
2024/01/13 01:00:41;;;;;;;19.60;12.50;;;;;;;-1.71;100.00;99055.88;137454;1273;22230;-79
2024/01/13 01:03:44;;;;;;;24.60;12.60;;;;;;;-1.68;100.00;99051.76;137487;1273;22715;-79
2024/01/13 01:06:46;;;;;;;19.90;12.80;;;;;;;-1.68;100.00;99055.16;137474;1273;22105;-79
2024/01/13 01:09:49;;;;;;;17.50;11.00;;;;;;;-1.68;100.00;99053.84;137472;1273;22087;-79
2024/01/13 01:12:51;;;;;;;20.10;11.50;;;;;;;-1.68;100.00;99051.13;137565;1273;22700;-80
2024/01/13 01:15:55;;;;;;;19.20;11.30;;;;;;;-1.65;100.00;99052.64;137539;1273;22250;-79
2024/01/13 01:18:57;;;;;;;19.10;12.40;;;;;;;-1.64;100.00;99053.08;137527;1273;22382;-79
2024/01/13 01:22:02;;;;;;;;;;;;;;;-1.62;100.00;99048.41;137532;1273;22211;-80
2024/01/13 01:25:05;;;;;;;15.40;10.50;;;;;;;-1.59;100.00;99045.35;137519;1273;22483;-79
2024/01/13 01:28:07;;;;;;;15.60;10.20;;;;;;;-1.56;100.00;99043.66;137498;1273;22120;-79
2024/01/13 01:31:10;;;;;;;17.40;10.30;;;;;;;-1.55;100.00;99039.64;137494;1262;22221;-79
2024/01/13 01:34:12;;;;;;;17.40;10.70;;;;;;;-1.53;100.00;99038.36;137514;1273;22297;-79
2024/01/13 01:37:15;;;;;;;17.60;10.20;;;;;;;-1.51;100.00;99038.17;137528;1273;22527;-80
2024/01/13 01:40:20;;;;;;;19.60;10.60;;;;;;;-1.50;100.00;99031.22;137532;1273;22685;-81
2024/01/13 01:43:22;;;;;;;14.10;9.00;;;;;;;-1.51;100.00;99027.44;137503;1273;22126;-79
2024/01/13 01:46:25;;;;;;;18.00;10.80;;;;;;;-1.50;100.00;99023.73;137510;1273;22291;-79
2024/01/13 01:49:27;;;;;;;14.00;9.60;;;;;;;-1.46;100.00;99018.66;137542;1273;22548;-80
2024/01/13 01:52:30;;;;;;;21.10;11.40;;;;;;;0.16;100.00;99005.95;137524;1273;22183;-78
2024/01/13 01:55:32;;;;;;;19.80;11.80;;;;;;;0.87;100.00;99000.52;137516;1273;22063;-78
2024/01/13 01:58:35;;;;;;;15.60;9.90;;;;;;;0.11;100.00;99006.86;137548;1273;22062;-79
2024/01/13 02:01:37;;;;;;;14.70;10.10;;;;;;;-0.36;100.00;99014.50;137543;1273;22543;-78
2024/01/13 02:04:39;;;;;;;16.10;9.10;;;;;;;-0.65;100.00;99018.46;137546;1273;22302;-78
2024/01/13 02:07:42;;;;;;;12.40;8.60;;;;;;;-0.86;100.00;99017.34;137547;1273;22058;-78
2024/01/13 02:10:44;;;;;;;18.20;10.30;;;;;;;-0.98;100.00;99017.52;137504;1273;22115;-78
2024/01/13 02:13:47;;;;;;;12.70;9.20;;;;;;;-1.02;100.00;99019.14;137492;1273;22036;-78
2024/01/13 02:16:49;;;;;;;14.80;8.40;;;;;;;-1.04;100.00;99011.32;137533;1273;22068;-78
2024/01/13 02:19:51;;;;;;;12.10;9.00;;;;;;;-1.09;100.00;99002.81;137571;1273;22532;-78
2024/01/13 02:22:54;;;;;;;15.70;9.00;;;;;;;-1.11;100.00;98996.20;137562;1273;22172;-78
2024/01/13 02:25:56;;;;;;;14.30;9.30;;;;;;;-1.11;100.00;98985.42;137509;1273;22143;-78
2024/01/13 02:28:59;;;;;;;16.40;9.80;;;;;;;-1.11;100.00;98986.80;137488;1273;22594;-77
2024/01/13 02:32:01;;;;;;;14.40;9.10;;;;;;;-1.12;100.00;98986.92;137540;1273;22555;-78
2024/01/13 02:35:04;;;;;;;11.50;7.40;;;;;;;-1.14;100.00;98985.45;137485;1273;22228;-78
2024/01/13 02:38:06;;;;;;;13.30;8.30;;;;;;;-1.16;100.00;98981.77;137519;1273;22569;-78
2024/01/13 02:41:09;;;;;;;12.30;8.10;;;;;;;-1.17;100.00;98983.05;137490;1273;22080;-78
2024/01/13 02:44:11;;;;;;;13.20;8.20;;;;;;;-1.19;100.00;98982.60;137522;1273;22603;-77
2024/01/13 02:47:14;;;;;;;14.30;9.30;;;;;;;-1.20;100.00;98978.90;137495;1273;22215;-78
2024/01/13 02:50:16;;;;;;;13.30;9.00;;;;;;;-1.20;100.00;98976.22;137471;1273;22037;-78
2024/01/13 02:53:18;;;;;;;11.60;8.10;;;;;;;-1.18;100.00;98970.30;137538;1273;22232;-77
2024/01/13 02:56:21;;;;;;;12.00;8.00;;;;;;;-1.18;100.00;98961.28;137643;1273;22192;-78
2024/01/13 02:59:23;;;;;;;13.80;9.10;;;;;;;-1.17;100.00;98958.44;137709;1273;22085;-77
2024/01/13 03:02:26;;;;;;;15.80;9.40;;;;;;;-1.16;100.00;98955.09;137580;1273;22427;-78
2024/01/13 03:05:29;;;;;;;11.10;8.20;;;;;;;-1.16;100.00;98949.63;137542;1273;22072;-78
2024/01/13 03:08:31;;;;;;;12.70;8.50;;;;;;;-1.16;100.00;98950.31;137471;1270;22149;-78
2024/01/13 03:11:33;;;;;;;15.00;9.10;;;;;;;-1.17;100.00;98947.33;137543;1273;22231;-78
2024/01/13 03:14:36;;;;;;;14.00;8.70;;;;;;;-1.19;100.00;98946.55;137517;1273;22142;-78
2024/01/13 03:17:38;;;;;;;16.70;10.00;;;;;;;-1.18;100.00;98941.32;137515;1273;22126;-78
2024/01/13 03:20:41;;;;;;;14.00;8.30;;;;;;;-1.15;100.00;98934.98;137495;1273;22087;-78
2024/01/13 03:23:43;;;;;;;10.20;7.90;;;;;;;-1.14;100.00;98932.48;137514;1273;22070;-78
2024/01/13 03:26:46;;;;;;;11.20;8.00;;;;;;;-1.13;100.00;98929.33;137498;1273;22086;-78
2024/01/13 03:29:48;;;;;;;13.80;9.40;;;;;;;-1.11;100.00;98931.14;137462;1273;22457;-77
2024/01/13 03:32:51;;;;;;;13.00;8.60;;;;;;;-1.12;100.00;98933.11;137496;1273;22674;-78
2024/01/13 03:35:56;;;;;;;18.30;11.60;;;;;;;-0.54;100.00;98926.50;137516;1273;22238;-79
2024/01/13 03:38:59;;;;;;;17.40;11.10;;;;;;;3.28;100.00;98912.42;137487;1273;22173;-78
2024/01/13 03:42:02;;;;;;;13.00;9.60;;;;;;;3.21;100.00;98907.59;137490;1273;22612;-78
2024/01/13 03:45:04;;;;;;;14.20;9.40;;;;;;;1.61;100.00;98915.84;137455;1273;22885;-77
2024/01/13 03:48:07;;;;;;;13.30;8.60;;;;;;;0.65;100.00;98908.63;137445;1270;22113;-78
2024/01/13 03:51:09;;;;;;;12.20;7.90;;;;;;;0.05;100.00;98918.95;137479;1273;22515;-78
2024/01/13 03:54:12;;;;;;;13.00;8.80;;;;;;;-0.34;100.00;98923.44;137486;1273;22230;-78
2024/01/13 03:57:14;;;;;;;13.70;8.70;;;;;;;-0.58;100.00;98922.96;137482;1273;22172;-79
2024/01/13 04:00:17;;;;;;;11.00;8.20;;;;;;;-0.72;100.00;98924.56;137440;1273;22116;-78
2024/01/13 04:03:19;;;;;;;13.60;9.00;;;;;;;-0.82;100.00;98938.66;137412;1273;22149;-79
2024/01/13 04:06:22;;;;;;;15.80;10.10;;;;;;;1.53;100.00;98924.73;137439;1273;22117;-79
2024/01/13 04:09:25;;;;;;;13.10;8.80;;;;;;;4.75;100.00;98913.63;137486;1273;22172;-77
2024/01/13 04:12:27;;;;;;;9.70;7.60;;;;;;;2.88;100.00;98925.26;137501;1273;22107;-78
2024/01/13 04:15:30;;;;;;;13.80;8.40;;;;;;;1.36;100.00;98933.80;137439;1273;22135;-78
2024/01/13 04:18:32;;;;;;;13.90;8.80;;;;;;;0.54;100.00;98933.55;137467;1273;22249;-78
2024/01/13 04:21:35;;;;;;;12.80;8.60;;;;;;;0.10;100.00;98935.16;137477;1273;22155;-80
2024/01/13 04:24:37;;;;;;;17.60;11.20;;;;;;;-0.17;100.00;98928.65;137530;1273;22073;-79
2024/01/13 04:27:40;;;;;;;14.00;8.90;;;;;;;-0.33;100.00;98926.95;137447;1273;22111;-78
2024/01/13 04:30:42;;;;;;;13.30;8.70;;;;;;;-0.47;100.00;98922.38;137489;1273;22130;-79
2024/01/13 04:33:45;;;;;;;14.80;8.70;;;;;;;-0.62;100.00;98918.98;137517;1273;22125;-79
2024/01/13 04:36:47;;;;;;;12.70;9.00;;;;;;;-0.72;100.00;98911.58;137498;1270;22190;-78
2024/01/13 04:39:50;;;;;;;16.50;9.40;;;;;;;-0.79;100.00;98906.08;137504;1273;22413;-79
2024/01/13 04:42:52;;;;;;;15.90;8.50;;;;;;;-0.83;100.00;98895.89;137499;1273;22232;-79
2024/01/13 04:45:56;;;;;;;17.70;10.40;;;;;;;-0.86;100.00;98895.54;137480;1273;22289;-79
2024/01/13 04:48:59;;;;;;;18.40;10.30;;;;;;;-0.89;100.00;98886.46;137445;1273;22286;-79
2024/01/13 04:52:02;;;;;;;17.90;11.10;;;;;;;-0.91;100.00;98886.19;137449;1273;22612;-79
2024/01/13 04:55:04;;;;;;;14.50;10.10;;;;;;;-0.92;100.00;98886.30;137466;1273;22750;-79
2024/01/13 04:58:07;;;;;;;17.80;10.10;;;;;;;-0.93;100.00;98888.48;137476;1259;22124;-79
2024/01/13 05:01:09;;;;;;;15.90;10.80;;;;;;;-0.95;100.00;98885.30;137538;1273;22193;-79
2024/01/13 05:04:12;;;;;;;15.10;10.00;;;;;;;-0.93;100.00;98888.45;137451;1273;22138;-80
2024/01/13 05:07:15;;;;;;;18.00;10.60;;;;;;;-0.93;100.00;98889.62;137462;1273;22277;-79
2024/01/13 05:10:18;;;;;;;17.30;9.90;;;;;;;-0.93;100.00;98890.48;137476;1273;22112;-79
2024/01/13 05:13:20;;;;;;;14.20;10.20;;;;;;;-0.93;100.00;98897.17;137535;1273;22109;-79
2024/01/13 05:19:53;;;;;;;15.00;10.60;;;;;;;-0.95;100.00;98898.62;133358;1301;545027;-80
2024/01/13 05:22:55;;;;;;;14.50;10.70;;;;;;;-0.97;100.00;98898.33;136039;1283;22348;-78
2024/01/13 05:25:57;;;;;;;16.30;10.40;;;;;;;-0.94;100.00;98896.41;136600;1283;22093;-79
2024/01/13 05:29:00;;;;;;;23.30;13.40;;;;;;;-0.98;100.00;98896.58;136588;1283;22176;-78
2024/01/13 05:32:02;;;;;;;22.20;13.40;;;;;;;-0.84;100.00;98902.96;135686;1281;163908;-79
2024/01/13 05:35:05;;;;;;;17.40;11.90;;;;;;;2.73;100.00;98894.34;136263;1281;22562;-79
2024/01/13 05:38:08;;;;;;;12.90;10.30;;;;;;;5.48;100.00;98886.83;136552;1281;22698;-79
2024/01/13 05:41:10;;;;;;;17.60;11.00;;;;;;;6.61;100.00;98888.26;136044;1277;23149;-79
2024/01/13 05:44:12;;;;;;;16.70;9.60;;;;;;;4.38;100.00;98903.08;135917;1281;22262;-78
2024/01/13 05:47:15;;;;;;;12.50;8.50;;;;;;;2.39;100.00;98912.96;136564;1281;25506;-80
2024/01/13 05:50:18;;;;;;;15.50;10.60;;;;;;;1.20;100.00;98918.77;135984;1281;22265;-80
2024/01/13 05:53:22;;;;;;;17.20;11.60;;;;;;;1.13;100.00;98908.47;136177;1281;22354;-81
2024/01/13 05:56:25;;;;;;;19.30;12.00;;;;;;;1.12;100.00;98901.56;136449;1281;22618;-83
2024/01/13 05:59:27;;;;;;;17.40;11.90;;;;;;;0.50;100.00;98899.77;136231;1281;22269;-83
2024/01/13 06:02:30;;;;;;;20.30;12.90;;;;;;;0.08;100.00;98896.17;136054;1281;22364;-83
2024/01/13 06:05:32;;;;;;;22.40;12.90;;;;;;;-0.19;100.00;98899.85;136470;1281;22583;-80
2024/01/13 06:08:35;;;;;;;16.80;11.10;;;;;;;-0.37;100.00;98906.21;136433;1281;22757;-81
2024/01/13 06:11:37;;;;;;;21.50;13.20;;;;;;;-0.48;100.00;98900.11;136092;1281;22323;-81
2024/01/13 06:14:39;;;;;;;21.00;11.70;;;;;;;-0.54;100.00;98902.17;136234;1281;22567;-81
2024/01/13 06:17:42;;;;;;;23.50;14.50;;;;;;;-0.58;100.00;98908.24;136594;1281;22263;-81
2024/01/13 06:20:45;;;;;;;22.20;12.50;;;;;;;-0.62;100.00;98912.98;136643;1281;22686;-82
2024/01/13 06:23:47;;;;;;;25.70;13.70;;;;;;;-0.67;100.00;98913.94;136654;1281;22195;-81
2024/01/13 06:26:49;;;;;;;31.10;15.00;;;;;;;-0.69;100.00;98911.41;136635;1281;22229;-81
2024/01/13 06:29:52;;;;;;;22.20;13.90;;;;;;;-0.71;100.00;98908.92;136594;1281;22466;-81
2024/01/13 06:32:54;;;;;;;20.60;13.00;;;;;;;-0.73;100.00;98906.73;136624;1281;22286;-82
2024/01/13 06:35:57;;;;;;;20.60;12.80;;;;;;;-0.75;100.00;98906.44;136616;1281;22740;-82
2024/01/13 06:38:59;;;;;;;27.00;15.30;;;;;;;-0.77;100.00;98906.36;136614;1281;22977;-82
2024/01/13 06:42:06;;;;;;;27.10;15.00;;;;;;;-0.77;100.00;98904.46;136641;1281;22704;-81
2024/01/13 06:45:08;;;;;;;27.80;14.80;;;;;;;-0.74;100.00;98903.45;136644;1281;22258;-82
2024/01/13 06:48:10;;;;;;;24.20;13.90;;;;;;;-0.71;100.00;98909.23;136646;1281;22291;-81
2024/01/13 06:51:13;;;;;;;20.60;12.90;;;;;;;-0.68;100.00;98901.06;136664;1281;22903;-81
2024/01/13 06:54:15;;;;;;;26.00;15.20;;;;;;;-0.65;100.00;98897.96;136575;1273;22250;-82
2024/01/13 06:57:18;;;;;;;26.30;14.10;;;;;;;-0.66;100.00;98895.17;136618;1281;22623;-81
2024/01/13 07:00:20;;;;;;;20.90;12.20;;;;;;;-0.67;100.00;98898.52;136552;1281;22253;-82
2024/01/13 07:03:23;;;;;;;24.30;13.80;;;;;;;-0.67;100.00;98893.40;136534;1281;22864;-81
2024/01/13 07:06:25;;;;;;;24.20;13.40;;;;;;;-0.67;100.00;98895.82;136476;1281;22748;-82
2024/01/13 07:09:29;;;;;;;21.60;14.20;;;;;;;-0.67;100.00;98892.02;136488;1281;23015;-81
2024/01/13 07:12:32;;;;;;;28.60;15.70;;;;;;;-0.67;100.00;98891.34;136452;1281;22203;-81
2024/01/13 07:15:34;;;;;;;23.20;14.30;;;;;;;-0.65;100.00;98887.71;136418;1281;22146;-82
2024/01/13 07:18:37;;;;;;;21.90;13.40;;;;;;;-0.65;100.00;98885.33;136673;1281;22300;-82
2024/01/13 07:21:39;;;;;;;24.50;14.60;;;;;;;-0.61;100.00;98881.21;136387;1281;22265;-81
2024/01/13 07:24:45;;;;;;;25.90;15.00;;;;;;;-0.61;100.00;98874.73;136453;1281;22296;-82
2024/01/13 07:27:48;;;;;;;29.40;16.10;;;;;;;-0.63;100.00;98863.88;136502;1281;22568;-82
2024/01/13 07:30:50;;;;;;;41.30;21.50;;;;;;;-0.63;100.00;98864.90;136556;1280;22262;-82
2024/01/13 07:33:53;;;;;;;31.00;17.00;;;;;;;-0.61;100.00;98864.64;136352;1281;22580;-82
2024/01/13 07:36:55;;;;;;;36.90;17.80;;;;;;;-0.65;100.00;98861.90;136421;1281;22823;-81
2024/01/13 07:39:58;;;;;;;28.60;17.00;;;;;;;-0.64;100.00;98865.70;136209;1281;22571;-81
2024/01/13 07:43:00;;;;;;;26.50;16.50;;;;;;;-0.60;100.00;98870.53;136990;1276;22173;-81
2024/01/13 07:46:03;;;;;;;27.30;15.00;;;;;;;-0.56;100.00;98870.59;136853;1272;22181;-80
2024/01/13 07:49:05;;;;;;;29.80;16.70;;;;;;;-0.53;100.00;98871.60;137158;1270;22244;-81
2024/01/13 07:52:08;;;;;;;30.70;14.80;;;;;;;-0.48;100.00;98877.19;136875;1276;22340;-81
2024/01/13 07:55:10;;;;;;;33.70;16.40;;;;;;;-0.42;100.00;98879.59;137065;1276;22305;-80
2024/01/13 07:58:13;;;;;;;36.90;17.40;;;;;;;-0.39;100.00;98878.22;137070;1276;22578;-80
2024/01/13 08:01:15;;;;;;;59.00;28.60;;;;;;;-0.36;100.00;98875.14;136883;1276;22229;-82
2024/01/13 08:04:17;;;;;;;43.50;21.00;;;;;;;-0.36;100.00;98880.80;137104;1276;22282;-83
2024/01/13 08:07:23;;;;;;;48.40;20.80;;;;;;;-0.34;100.00;98878.65;137085;1273;22857;-81
2024/01/13 08:10:25;;;;;;;42.20;20.30;;;;;;;-0.33;100.00;98880.58;137074;1276;23166;-82
2024/01/13 08:13:28;;;;;;;47.90;24.90;;;;;;;-0.30;100.00;98878.69;137079;1276;22320;-82
2024/01/13 08:16:30;;;;;;;36.60;20.60;;;;;;;-0.24;100.00;98875.76;136984;1276;22835;-82
2024/01/13 08:19:33;;;;;;;42.40;20.90;;;;;;;-0.18;100.00;98873.71;137160;1276;22321;-80
2024/01/13 08:22:35;;;;;;;38.50;20.30;;;;;;;-0.14;100.00;98879.92;137009;1270;22314;-80
2024/01/13 08:25:38;;;;;;;35.30;19.30;;;;;;;-0.14;100.00;98881.47;136996;1276;22294;-81
2024/01/13 08:28:40;;;;;;;35.50;18.80;;;;;;;-0.08;100.00;98876.12;137133;1276;22155;-81
2024/01/13 08:31:44;;;;;;;36.30;18.60;;;;;;;-0.08;100.00;98876.66;137136;1276;22233;-79
2024/01/13 08:34:47;;;;;;;31.70;18.70;;;;;;;-0.09;100.00;98874.72;137006;1276;22146;-80
2024/01/13 08:37:51;;;;;;;18.90;12.80;;;;;;;-0.14;100.00;98867.10;136890;1276;24212;-80
2024/01/13 08:40:53;;;;;;;23.80;14.20;;;;;;;-0.14;100.00;98863.81;137124;1276;22240;-80
2024/01/13 08:43:56;;;;;;;23.00;14.30;;;;;;;-0.17;100.00;98858.70;137081;1276;22695;-79
2024/01/13 08:46:58;;;;;;;27.10;16.00;;;;;;;-0.18;100.00;98853.16;137027;1276;22368;-80
2024/01/13 08:50:00;;;;;;;28.50;14.40;;;;;;;-0.18;100.00;98855.44;137138;1276;22140;-80
2024/01/13 08:53:03;;;;;;;27.00;16.90;;;;;;;-0.17;100.00;98851.55;136888;1276;22431;-80
2024/01/13 08:56:06;;;;;;;31.80;19.40;;;;;;;-0.11;100.00;98850.17;136889;1276;22227;-80
2024/01/13 08:59:08;;;;;;;37.60;20.80;;;;;;;-0.01;100.00;98852.73;137161;1276;22165;-80
2024/01/13 09:02:11;;;;;;;34.40;18.50;;;;;;;0.00;100.00;98860.88;137120;1276;22302;-79
2024/01/13 09:05:14;;;;;;;33.00;19.10;;;;;;;-0.03;100.00;98853.51;137099;1276;22247;-79
2024/01/13 09:08:16;;;;;;;30.10;16.20;;;;;;;-0.05;100.00;98855.46;137113;1276;22229;-79
2024/01/13 09:11:18;;;;;;;25.00;15.10;;;;;;;-0.07;100.00;98857.40;137069;1276;22276;-79
2024/01/13 09:14:21;;;;;;;29.80;15.80;;;;;;;-0.10;100.00;98848.35;137090;1276;22280;-78
2024/01/13 09:17:23;;;;;;;27.00;16.80;;;;;;;-0.06;100.00;98850.91;136868;1276;22762;-79
2024/01/13 09:20:26;;;;;;;23.30;15.00;;;;;;;-0.02;100.00;98846.00;137090;1276;22228;-78
2024/01/13 09:23:28;;;;;;;28.00;15.60;;;;;;;-0.01;100.00;98839.42;136832;1276;22223;-79
2024/01/13 09:26:31;;;;;;;29.00;16.00;;;;;;;0.04;100.00;98846.19;137124;1276;22200;-79
2024/01/13 09:29:33;;;;;;;34.70;17.80;;;;;;;0.08;100.00;98837.52;137100;1273;22108;-79
2024/01/13 09:32:36;;;;;;;25.60;15.50;;;;;;;0.11;100.00;98835.63;137090;1276;22234;-79
2024/01/13 09:35:40;;;;;;;27.80;16.20;;;;;;;0.07;100.00;98832.14;137091;1276;22221;-80
2024/01/13 09:38:42;;;;;;;28.70;17.20;;;;;;;0.05;100.00;98820.08;137080;1276;22208;-79
2024/01/13 09:41:45;;;;;;;32.80;15.50;;;;;;;0.11;100.00;98818.86;137114;1276;22254;-79
2024/01/13 09:44:48;;;;;;;26.40;15.60;;;;;;;0.15;100.00;98823.29;136842;1270;22258;-80
2024/01/13 09:47:50;;;;;;;32.30;16.20;;;;;;;0.17;100.00;98813.86;136889;1276;22208;-80
2024/01/13 09:50:53;;;;;;;38.50;18.60;;;;;;;0.19;100.00;98807.44;137079;1276;22242;-80
2024/01/13 09:53:55;;;;;;;28.90;14.90;;;;;;;0.23;100.00;98806.30;136885;1276;22578;-80
2024/01/13 09:56:58;;;;;;;26.60;16.00;;;;;;;0.27;100.00;98798.13;136756;1276;22231;-80
2024/01/13 10:00:00;;;;;;;19.60;12.30;;;;;;;0.29;100.00;98795.98;137083;1276;22490;-80
2024/01/13 10:03:03;;;;;;;32.30;16.20;;;;;;;0.29;100.00;98789.48;137109;1276;22223;-80
2024/01/13 10:06:05;;;;;;;26.40;16.30;;;;;;;0.34;100.00;98786.15;136968;1276;22255;-80
2024/01/13 10:09:10;;;;;;;31.20;17.80;;;;;;;0.42;100.00;98784.34;136937;1276;22721;-79
2024/01/13 10:12:13;;;;;;;31.20;17.90;;;;;;;0.48;100.00;98775.55;136973;1276;22283;-80
2024/01/13 10:15:16;;;;;;;28.60;16.50;;;;;;;0.58;100.00;98769.02;137245;1276;22869;-80
2024/01/13 10:18:19;;;;;;;35.10;17.10;;;;;;;0.63;100.00;98764.32;136941;1276;22304;-79
2024/01/13 10:21:21;;;;;;;38.10;18.70;;;;;;;0.68;100.00;98763.86;137206;1276;22265;-79
2024/01/13 10:24:23;;;;;;;36.60;16.80;;;;;;;0.74;100.00;98761.91;136910;1276;22307;-80
2024/01/13 10:27:26;;;;;;;41.50;19.00;;;;;;;1.09;100.00;98751.98;137016;1276;22264;-80
2024/01/13 10:30:28;;;;;;;36.80;18.20;;;;;;;1.44;100.00;98748.34;137056;1273;22409;-80
2024/01/13 10:33:31;;;;;;;31.80;17.90;;;;;;;1.34;100.00;98745.30;137067;1276;22252;-80
2024/01/13 10:36:34;;;;;;;30.20;17.80;;;;;;;1.22;100.00;98748.20;136950;1276;22210;-80
2024/01/13 10:39:36;;;;;;;31.60;18.30;;;;;;;1.15;100.00;98745.08;136914;1276;22314;-79
2024/01/13 10:42:40;;;;;;;28.20;17.10;;;;;;;1.11;100.00;98743.00;137129;1276;22225;-80
2024/01/13 10:45:43;;;;;;;28.70;16.60;;;;;;;1.06;100.00;98744.15;136908;1276;22266;-79
2024/01/13 10:48:46;;;;;;;26.30;16.50;;;;;;;1.04;100.00;98742.48;137119;1276;22193;-80
2024/01/13 10:51:48;;;;;;;25.60;16.10;;;;;;;1.01;100.00;98736.17;137120;1276;22234;-79
2024/01/13 10:54:51;;;;;;;30.40;17.60;;;;;;;0.99;100.00;98731.14;137162;1276;22247;-79
2024/01/13 10:57:53;;;;;;;30.60;17.80;;;;;;;1.06;100.00;98727.02;137124;1276;22220;-80
2024/01/13 11:00:55;;;;;;;28.10;17.30;;;;;;;1.09;100.00;98715.66;137043;1276;22556;-79
2024/01/13 11:03:58;;;;;;;27.90;17.30;;;;;;;1.03;100.00;98707.88;137105;1276;22269;-80
2024/01/13 11:07:00;;;;;;;29.30;17.90;;;;;;;1.01;100.00;98705.21;137107;1276;23037;-78
2024/01/13 11:10:03;;;;;;;29.30;16.60;;;;;;;1.02;100.00;98703.19;137083;1276;22196;-79
2024/01/13 11:13:05;;;;;;;29.50;17.60;;;;;;;1.01;100.00;98702.61;137103;1276;22250;-79
2024/01/13 11:16:08;;;;;;;34.50;19.30;;;;;;;0.99;100.00;98700.81;137165;1276;22275;-79
2024/01/13 11:19:11;;;;;;;27.90;14.90;;;;;;;1.00;100.00;98693.65;136901;1276;22850;-80
2024/01/13 11:22:13;;;;;;;17.60;11.90;;;;;;;0.96;100.00;98684.75;137134;1276;22216;-79
2024/01/13 11:25:15;;;;;;;18.50;11.30;;;;;;;0.94;100.00;98683.78;137152;1276;22210;-79
2024/01/13 11:28:18;;;;;;;25.80;13.80;;;;;;;0.89;100.00;98685.63;137123;1271;22300;-80
2024/01/13 11:31:20;;;;;;;30.00;14.90;;;;;;;0.92;100.00;98683.00;137128;1276;22291;-79
2024/01/13 11:34:23;;;;;;;32.20;15.10;;;;;;;0.97;100.00;98679.64;137100;1276;22330;-80
2024/01/13 11:37:25;;;;;;;37.60;17.60;;;;;;;0.98;100.00;98674.39;137144;1276;22230;-80
2024/01/13 11:40:28;;;;;;;22.20;12.60;;;;;;;0.98;100.00;98668.91;137119;1276;22653;-78
2024/01/13 11:43:30;;;;;;;24.00;12.10;;;;;;;0.95;100.00;98661.89;137090;1276;22258;-79
2024/01/13 11:46:33;;;;;;;24.10;11.50;;;;;;;0.95;100.00;98651.78;137143;1276;22304;-80
2024/01/13 11:49:35;;;;;;;17.40;10.20;;;;;;;0.99;100.00;98642.90;137103;1276;22286;-79
2024/01/13 11:52:38;;;;;;;17.80;10.20;;;;;;;0.97;100.00;98639.21;137096;1276;22180;-79
2024/01/13 11:55:40;;;;;;;18.70;9.90;;;;;;;0.97;100.00;98630.14;137076;1276;22235;-79
2024/01/13 11:58:44;;;;;;;14.30;9.30;;;;;;;0.95;100.00;98622.66;137095;1276;22274;-80
2024/01/13 12:01:46;;;;;;;16.60;10.70;;;;;;;0.92;100.00;98616.02;137039;1276;22157;-79
2024/01/13 12:04:49;;;;;;;19.00;11.40;;;;;;;0.90;100.00;98613.20;137125;1269;22267;-79
2024/01/13 12:07:52;;;;;;;16.70;10.30;;;;;;;0.91;100.00;98605.88;137123;1276;22544;-79
2024/01/13 12:10:54;;;;;;;18.30;9.80;;;;;;;0.90;100.00;98599.48;136941;1276;22598;-79
2024/01/13 12:13:57;;;;;;;17.60;9.70;;;;;;;0.93;100.00;98592.43;137115;1276;22318;-79
2024/01/13 12:17:00;;;;;;;20.00;10.90;;;;;;;0.97;100.00;98585.39;136920;1276;22269;-79
2024/01/13 12:20:03;;;;;;;18.70;10.30;;;;;;;0.99;100.00;98576.25;137153;1276;22348;-80
2024/01/13 12:23:06;;;;;;;20.30;10.90;;;;;;;1.01;100.00;98574.27;137192;1276;22308;-79
2024/01/13 12:26:08;;;;;;;16.60;9.50;;;;;;;1.03;100.00;98577.63;137233;1276;22342;-78
2024/01/13 12:29:11;;;;;;;14.90;9.40;;;;;;;0.99;100.00;98587.02;137230;1276;22884;-78
2024/01/13 12:32:14;;;;;;;16.40;9.10;;;;;;;0.97;100.00;98583.37;137224;1276;22290;-78
2024/01/13 12:35:17;;;;;;;15.90;10.10;;;;;;;0.92;100.00;98585.71;137222;1276;22291;-79
2024/01/13 12:38:19;;;;;;;21.30;10.20;;;;;;;0.90;100.00;98573.12;137246;1276;22268;-79
2024/01/13 12:41:22;;;;;;;15.30;8.70;;;;;;;1.03;100.00;98562.55;137054;1276;22248;-79
2024/01/13 12:44:25;;;;;;;16.00;9.60;;;;;;;1.09;100.00;98557.33;137186;1276;22244;-79
2024/01/13 12:47:27;;;;;;;12.60;8.00;;;;;;;1.42;100.00;98561.33;136971;1276;22280;-78
2024/01/13 12:50:29;;;;;;;17.30;10.50;;;;;;;2.06;100.00;98563.03;137235;1276;22844;-79
2024/01/13 12:53:32;;;;;;;15.00;9.10;;;;;;;2.69;100.00;98567.41;137203;1276;22371;-79
2024/01/13 12:56:34;;;;;;;15.00;9.30;;;;;;;2.42;100.00;98565.14;137134;1276;22301;-78
2024/01/13 12:59:37;;;;;;;19.30;10.40;;;;;;;2.04;100.00;98556.23;136887;1262;22152;-79
2024/01/13 13:02:40;;;;;;;21.80;11.80;;;;;;;1.75;100.00;98555.20;136979;1276;22598;-81
2024/01/13 13:05:42;;;;;;;19.20;11.70;;;;;;;1.62;100.00;98551.73;137186;1276;22590;-79
2024/01/13 13:08:45;;;;;;;21.90;10.90;;;;;;;1.52;100.00;98546.49;136956;1276;22615;-79
2024/01/13 13:11:47;;;;;;;20.70;11.30;;;;;;;1.45;100.00;98535.40;136850;1273;22625;-79
2024/01/13 13:14:50;;;;;;;16.50;10.60;;;;;;;1.37;100.00;98515.52;137106;1276;22260;-79
2024/01/13 13:17:52;;;;;;;15.00;8.50;;;;;;;1.38;100.00;98511.27;137049;1276;22414;-80
2024/01/13 13:20:55;;;;;;;18.30;10.00;;;;;;;1.33;100.00;98519.10;137095;1276;22380;-79
2024/01/13 13:23:57;;;;;;;29.30;13.80;;;;;;;1.27;100.00;98528.48;137173;1271;22247;-79
2024/01/13 13:27:00;;;;;;;36.10;17.00;;;;;;;1.24;100.00;98527.32;137015;1276;22642;-79
2024/01/13 13:30:04;;;;;;;21.30;10.80;;;;;;;1.27;100.00;98522.48;137213;1276;22406;-78
2024/01/13 13:33:07;;;;;;;15.00;8.40;;;;;;;1.82;100.00;98506.21;136990;1276;22565;-78
2024/01/13 13:36:09;;;;;;;25.30;11.80;;;;;;;3.51;100.00;98502.81;137147;1276;22243;-78
2024/01/13 13:39:15;;;;;;;24.90;11.70;;;;;;;4.75;100.00;98493.39;137050;1276;22802;-79
2024/01/13 13:42:17;;;;;;;26.20;12.20;;;;;;;5.44;100.00;98497.20;137200;1276;22662;-78
2024/01/13 13:45:20;;;;;;;33.80;13.80;;;;;;;6.30;100.00;98497.34;137217;1266;22194;-78
2024/01/13 13:48:23;;;;;;;17.10;9.70;;;;;;;6.50;100.00;98491.41;136864;1276;22615;-79
2024/01/13 13:51:29;;;;;;;15.50;9.20;;;;;;;6.89;100.00;98489.67;137031;1276;22239;-79